Pagina principale
METAR-TAF:

METAR-TAF

Aeroporti :

Aeroporto di Bologna-Borgo Panigale

Bologna, Italia

latitudine: 44-32N, longitudine: 011-18E, altezza: 36 m

Osservazione

Il bollettino è stato emesso 18 minuti fa, alle 05:50 UTC
Vento 3 kt da sud, variando fra sud-est e sud/sud-ovest
Temperature 24°C
Umidità 78%
Pressione 1015 hPa
Visibilità 10 km o più
nessuna nube inferiore a 1500 m e nessun cumulonembo

METAR: LIPE 230550Z 18003KT 140V200 CAVOK 24/20 Q1015

Ora: 08:08 (06:08 UTC)

Previsione

Il bollettino è stato emesso 1 ora e 8 minuti fa, alle 05:00 UTC
Previsione valida dal 23 alle 06 UTC al 24 alle 06 UTC
Vento 6 kt da direzioni variabili
Visibilità 10 km o più
Poco nuvoloso ad un'altezza di 3000 ft
Temporaneamente
dal 23 alle 14 UTC al 23 alle 20 UTC
Visibilità: 4000 m
temporale, pioggia,

TAF: LIPE 230500Z 2306/2406 VRB06KT 9999 FEW030 TEMPO 2314/2320 4000 TSRA

Osservazioni e previsioni meteorologiche di più di 4000 aeroporti (messaggi METAR e TAF).

Le stazioni disponibili sono rappresentate dai dischi gialli e rossi sulla carta.

Puntare il mouse per vedere il nome della stazione.

Clicca sopra per visualizzare le osservazioni e previsioni meteorologiche.

Per cambiare la mappa : fare clic sui pulsanti verdi con una croce nera per ingrandire, il pulsante verde con un trattino per diminuire, o sulla freccia verde per le mappe adiacenti.


METAR-TAF: